Terminal Aerodrome Forecast
Issued by NWS

Home | Current Version | Previous Version | Text Only | Print | Product List | Glossary On
Versions: 1 2 3 4 5 6 7 8 9 10 11 12 13 14 15
000
FTUS46 KPDT 011100
TAFDLS
TAF
KDLS 011120Z 0112/0212 29008KT P6SM SCT060
     FM011700 30014KT P6SM SCT060 SCT100
     FM012000 30018G30KT P6SM VCSH BKN060 BKN100
     FM020400 30012KT P6SM SCT060 BKN100=

USA.gov is the U.S. government's official web portal to all federal, state and local government web resources and services.